Time;durP1;ratioP1;P1;durP2;ratioP2;P2;SDS_P1;SDS_P2;PMS_P1;PMS_P2;Temp;Humidity;BMP_temperature;BMP_pressure;BME280_temperature;BME280_humidity;BME280_pressure;Samples;Min_cycle;Max_cycle;Signal;HPM_P1;HPM_P2
2021/01/02 00:02:04;;;;;;;14.27;9.48;;;;;;;7.72;83.25;99769.09;5055814;28;20035;-79
2021/01/02 00:04:38;;;;;;;19.05;11.77;;;;;;;7.76;82.68;99761.69;5058352;28;20064;-79
2021/01/02 00:07:13;;;;;;;15.30;9.65;;;;;;;7.73;83.10;99753.31;5058347;28;20033;-79
2021/01/02 00:09:43;;;;;;;18.85;12.93;;;;;;;7.66;83.04;99750.34;5056570;28;20036;-80
2021/01/02 00:12:27;;;;;;;18.70;13.10;;;;;;;7.73;83.35;99745.00;5057350;28;20121;-80
2021/01/02 00:15:06;;;;;;;;;;;;;;;7.73;83.42;99750.56;5057735;28;20033;-79
2021/01/02 00:17:52;;;;;;;14.98;10.43;;;;;;;7.69;83.75;99742.13;5042410;28;19916;-80
2021/01/02 00:20:33;;;;;;;16.35;8.45;;;;;;;7.61;84.16;99746.66;5033998;28;20042;-79
2021/01/02 00:23:09;;;;;;;9.10;5.93;;;;;;;7.50;83.77;99739.22;5058986;28;20410;-78
2021/01/02 00:25:35;;;;;;;17.10;8.65;;;;;;;7.66;84.04;99740.06;5058847;28;20040;-80
2021/01/02 00:28:23;;;;;;;13.07;8.52;;;;;;;7.60;83.97;99733.19;5057770;28;20478;-79
2021/01/02 00:31:01;;;;;;;13.10;9.07;;;;;;;7.60;84.05;99733.19;5057996;28;20030;-79
2021/01/02 00:33:44;;;;;;;16.80;10.05;;;;;;;7.55;83.84;99731.47;5058507;28;20034;-78
2021/01/02 00:36:36;;;;;;;13.20;8.93;;;;;;;7.52;84.42;99732.19;5058043;28;20064;-80
2021/01/02 00:39:06;;;;;;;11.55;8.05;;;;;;;7.51;84.33;99744.41;5033390;28;20045;-79
2021/01/02 00:41:34;;;;;;;15.25;7.47;;;;;;;7.48;84.71;99736.81;5057695;28;20033;-79
2021/01/02 00:44:05;;;;;;;10.88;5.82;;;;;;;7.55;85.09;99736.19;5057545;28;20036;-79
2021/01/02 00:46:39;;;;;;;8.65;5.80;;;;;;;7.56;84.59;99732.25;5059167;28;20056;-79
2021/01/02 00:49:13;;;;;;;6.32;4.97;;;;;;;7.52;84.26;99737.72;5058687;28;20033;-80
2021/01/02 00:51:59;;;;;;;11.15;5.80;;;;;;;7.51;84.20;99741.66;5057601;28;20029;-80
2021/01/02 00:54:39;;;;;;;11.00;7.30;;;;;;;7.51;84.50;99730.59;5041957;28;20108;-79
2021/01/02 00:57:26;;;;;;;12.02;7.03;;;;;;;7.50;84.13;99730.91;5058507;28;20026;-79
2021/01/02 01:00:05;;;;;;;14.07;8.50;;;;;;;7.56;85.04;99737.81;5057743;28;20507;-78
2021/01/02 01:02:46;;;;;;;13.02;8.23;;;;;;;7.55;85.04;99727.88;5057658;28;20025;-79
2021/01/02 01:05:24;;;;;;;14.57;9.35;;;;;;;7.50;85.08;99728.94;5057145;28;20029;-79
2021/01/02 01:07:59;;;;;;;10.98;8.02;;;;;;;7.63;84.56;99732.47;5042043;28;20037;-80
2021/01/02 01:10:35;;;;;;;11.20;6.40;;;;;;;7.53;84.80;99719.94;5056950;28;20036;-79
2021/01/02 01:13:12;;;;;;;12.10;7.10;;;;;;;7.53;84.97;99722.72;5056781;28;20029;-79
2021/01/02 01:15:43;;;;;;;11.77;6.68;;;;;;;7.49;84.98;99726.53;5058342;28;20043;-79
2021/01/02 01:18:18;;;;;;;8.98;5.18;;;;;;;7.29;85.34;99703.44;5057178;28;20104;-79
2021/01/02 01:20:52;;;;;;;13.50;7.10;;;;;;;7.48;85.39;99730.47;5057431;28;20033;-80
2021/01/02 01:23:39;;;;;;;17.83;10.27;;;;;;;7.50;85.22;99719.84;5057380;28;20026;-79
2021/01/02 01:26:37;;;;;;;17.38;8.70;;;;;;;7.51;85.26;99707.59;5057948;28;20039;-79
2021/01/02 01:29:03;;;;;;;12.18;7.60;;;;;;;7.61;84.71;99716.19;5057916;28;20056;-79
2021/01/02 01:31:44;;;;;;;11.88;6.18;;;;;;;7.50;84.76;99694.94;5058081;28;20029;-76
2021/01/02 01:34:23;;;;;;;5.45;3.80;;;;;;;7.55;84.95;99709.31;5043049;28;20025;-79
2021/01/02 01:36:49;;;;;;;5.18;3.55;;;;;;;7.64;84.49;99698.09;5059780;28;20036;-79
2021/01/02 01:39:23;;;;;;;10.32;3.42;;;;;;;7.66;84.10;99694.97;5060768;28;20029;-79
2021/01/02 01:41:58;;;;;;;6.30;4.10;;;;;;;7.73;83.08;99695.16;5061293;28;20037;-77
2021/01/02 01:45:20;;;;;;;11.98;4.53;;;;;;;7.88;82.30;99684.09;5061226;28;20025;-80
2021/01/02 01:48:16;;;;;;;6.43;3.40;;;;;;;8.40;79.71;99677.44;4987584;28;20040;-79
2021/01/02 01:50:47;;;;;;;8.35;4.47;;;;;;;8.40;78.79;99682.19;4990976;28;20533;-79
2021/01/02 01:53:29;;;;;;;5.60;3.25;;;;;;;8.52;79.09;99661.88;5039482;28;20043;-79
2021/01/02 01:55:57;;;;;;;5.15;3.83;;;;;;;8.68;77.65;99656.28;5062030;28;20056;-78
2021/01/02 01:59:04;;;;;;;4.07;2.90;;;;;;;8.55;77.52;99638.97;5057999;28;20060;-78
2021/01/02 02:01:36;;;;;;;4.72;3.03;;;;;;;8.82;76.66;99659.38;4986512;28;20022;-79
2021/01/02 02:04:11;;;;;;;9.40;3.00;;;;;;;8.76;77.69;99656.06;5052034;28;20042;-78
2021/01/02 02:06:44;;;;;;;5.55;2.63;;;;;;;8.83;77.31;99656.22;5059563;28;20068;-79
2021/01/02 02:09:20;;;;;;;4.20;2.03;;;;;;;8.79;76.95;99655.38;5060714;28;20036;-79
2021/01/02 02:12:01;;;;;;;3.50;2.20;;;;;;;8.73;77.57;99662.34;5063382;28;20040;-79
2021/01/02 02:14:55;;;;;;;4.45;2.08;;;;;;;8.72;77.78;99649.66;5060171;28;20045;-78
2021/01/02 02:17:25;;;;;;;2.08;1.90;;;;;;;8.77;77.89;99649.34;5019253;28;20037;-78
2021/01/02 02:20:08;;;;;;;3.08;2.03;;;;;;;8.66;78.48;99646.34;5042408;28;20033;-78
2021/01/02 02:22:38;;;;;;;1.20;1.10;;;;;;;8.79;77.30;99643.44;5042139;28;20025;-78
2021/01/02 02:25:07;;;;;;;3.22;1.50;;;;;;;8.80;77.29;99639.53;5057328;28;20039;-78
2021/01/02 02:27:43;;;;;;;9.05;3.67;;;;;;;8.82;77.12;99624.09;5056983;28;20056;-78
2021/01/02 02:30:28;;;;;;;5.63;2.92;;;;;;;8.87;76.70;99629.38;5057317;28;20102;-77
2021/01/02 02:32:57;;;;;;;11.15;5.30;;;;;;;8.86;77.19;99633.31;5057505;28;20029;-78
2021/01/02 02:35:25;;;;;;;12.85;6.93;;;;;;;8.92;77.50;99631.06;5056347;28;20030;-77
2021/01/02 02:37:55;;;;;;;4.03;2.65;;;;;;;8.87;77.66;99623.81;5057044;28;20407;-78
2021/01/02 02:40:21;;;;;;;4.35;2.15;;;;;;;9.00;76.59;99613.41;5060067;28;20456;-78
2021/01/02 02:42:59;;;;;;;5.10;2.28;;;;;;;9.02;76.87;99624.13;5060434;28;20090;-79
2021/01/02 02:45:36;;;;;;;5.40;1.73;;;;;;;8.91;77.71;99601.72;5061578;28;20032;-78
2021/01/02 02:48:14;;;;;;;3.53;2.53;;;;;;;8.99;77.92;99603.44;5062300;28;20049;-78
2021/01/02 02:50:49;;;;;;;7.45;3.35;;;;;;;8.98;77.31;99601.03;5063383;28;20029;-78
2021/01/02 02:53:16;;;;;;;11.35;4.70;;;;;;;9.15;76.40;99600.56;5063233;28;20028;-79
2021/01/02 02:55:47;;;;;;;5.28;3.15;;;;;;;9.33;75.61;99590.63;5046079;28;20037;-78
2021/01/02 02:58:13;;;;;;;12.90;5.93;;;;;;;9.39;75.21;99593.91;5061775;28;20057;-79
2021/01/02 03:00:41;;;;;;;4.55;3.50;;;;;;;9.41;74.99;99578.47;5061831;28;20325;-78
2021/01/02 03:03:13;;;;;;;4.15;1.48;;;;;;;9.65;73.67;99582.06;5061101;28;20040;-78
2021/01/02 03:05:40;;;;;;;4.00;1.50;;;;;;;10.05;71.52;99580.69;5059972;28;20026;-78
2021/01/02 03:08:16;;;;;;;1.75;1.10;;;;;;;10.19;71.19;99561.44;5058110;28;20041;-79
2021/01/02 03:10:45;;;;;;;5.80;1.88;;;;;;;10.35;70.24;99564.09;5059779;28;20037;-78
2021/01/02 03:13:13;;;;;;;5.05;1.45;;;;;;;10.34;70.45;99560.50;5058020;28;20087;-78
2021/01/02 03:15:42;;;;;;;5.35;1.40;;;;;;;10.28;71.14;99550.91;5059874;28;20029;-77
2021/01/02 03:18:11;;;;;;;4.88;0.93;;;;;;;10.19;72.16;99550.34;5058291;28;20124;-78
2021/01/02 03:20:39;;;;;;;4.75;1.23;;;;;;;10.07;74.50;99539.44;5058944;28;20030;-80
2021/01/02 03:23:05;;;;;;;2.65;1.27;;;;;;;9.86;75.49;99549.06;5064951;28;20029;-79
2021/01/02 03:25:34;;;;;;;3.33;1.08;;;;;;;9.78;76.42;99546.53;5062375;28;20083;-79
2021/01/02 03:28:03;;;;;;;2.03;0.98;;;;;;;9.67;76.87;99544.38;5063466;28;20515;-79
2021/01/02 03:30:29;;;;;;;1.98;0.93;;;;;;;9.70;76.20;99542.84;5062691;28;20037;-79
2021/01/02 03:32:57;;;;;;;5.15;1.38;;;;;;;9.70;76.38;99542.84;5064044;28;20029;-80
2021/01/02 03:35:28;;;;;;;3.10;1.13;;;;;;;9.71;76.52;99561.91;5048688;28;20039;-80
2021/01/02 03:37:54;;;;;;;3.35;1.73;;;;;;;9.70;77.24;99581.75;5063229;28;20053;-79
2021/01/02 03:40:22;;;;;;;4.97;1.35;;;;;;;9.70;77.03;99570.63;5060106;28;20029;-79
2021/01/02 03:42:53;;;;;;;3.65;1.30;;;;;;;9.54;77.53;99572.75;5062864;28;20033;-80
2021/01/02 03:45:21;;;;;;;4.30;1.10;;;;;;;9.53;77.95;99587.78;5068645;28;20514;-80
2021/01/02 03:47:53;;;;;;;3.83;1.20;;;;;;;9.41;78.57;99570.13;5052843;28;20040;-81
2021/01/02 03:50:20;;;;;;;2.38;1.25;;;;;;;9.34;79.37;99556.13;5045925;28;20037;-80
2021/01/02 03:52:49;;;;;;;2.50;1.20;;;;;;;9.29;80.02;99550.88;5060953;28;20033;-80
2021/01/02 03:55:17;;;;;;;4.03;1.38;;;;;;;9.27;80.71;99546.84;5064810;28;20030;-81
2021/01/02 03:57:42;;;;;;;3.53;1.65;;;;;;;9.22;81.01;99556.31;5067515;28;20029;-74
2021/01/02 04:00:14;;;;;;;2.47;1.75;;;;;;;9.23;81.50;99559.91;5075305;28;20020;-81
2021/01/02 04:02:42;;;;;;;4.28;1.35;;;;;;;9.24;81.47;99556.75;5091004;28;20084;-80
2021/01/02 04:05:11;;;;;;;1.45;1.38;;;;;;;9.22;82.88;99566.63;5063958;28;20066;-79
2021/01/02 04:07:42;;;;;;;1.73;1.08;;;;;;;9.16;83.25;99558.59;5065169;28;20413;-78
2021/01/02 04:10:13;;;;;;;1.95;1.45;;;;;;;9.10;83.25;99557.25;5080011;28;20078;-79
2021/01/02 04:12:39;;;;;;;3.17;0.90;;;;;;;9.04;83.54;99550.41;5063314;28;20028;-80
2021/01/02 04:15:06;;;;;;;2.05;1.15;;;;;;;9.08;83.39;99550.50;5064787;28;20040;-80
2021/01/02 04:17:36;;;;;;;3.35;0.90;;;;;;;9.04;83.73;99544.06;5069403;28;20036;-80
2021/01/02 04:20:05;;;;;;;4.78;1.10;;;;;;;9.12;83.53;99557.72;5069124;28;20029;-80
2021/01/02 04:22:33;;;;;;;1.25;0.95;;;;;;;9.11;83.37;99549.78;5068128;28;20031;-80
2021/01/02 04:25:02;;;;;;;4.18;0.90;;;;;;;9.12;83.36;99543.03;5071266;28;20031;-76
2021/01/02 04:27:29;;;;;;;2.45;0.80;;;;;;;9.01;83.85;99550.38;5090706;28;20052;-80
2021/01/02 04:29:57;;;;;;;2.05;0.70;;;;;;;9.03;84.20;99545.25;5073415;28;20033;-81
2021/01/02 04:32:26;;;;;;;3.45;0.85;;;;;;;8.92;84.60;99548.63;5077283;28;20096;-81
2021/01/02 04:34:55;;;;;;;3.58;1.52;;;;;;;8.87;84.99;99560.00;5078287;28;20055;-80
2021/01/02 04:37:30;;;;;;;1.83;1.02;;;;;;;8.85;84.82;99559.59;5075208;28;20032;-81
2021/01/02 04:39:57;;;;;;;3.20;1.00;;;;;;;9.01;84.34;99561.47;5073713;28;20028;-80
2021/01/02 04:42:25;;;;;;;1.77;1.40;;;;;;;8.91;84.65;99591.41;5091301;28;20025;-81
2021/01/02 04:44:57;;;;;;;1.45;1.20;;;;;;;8.85;85.02;99592.88;5076614;28;20064;-81
2021/01/02 04:47:30;;;;;;;2.90;1.40;;;;;;;8.78;84.28;99551.09;5077031;28;20031;-81
2021/01/02 04:49:58;;;;;;;2.47;1.33;;;;;;;8.80;84.19;99557.09;5090424;28;20038;-80
2021/01/02 04:52:25;;;;;;;1.23;0.90;;;;;;;8.81;83.89;99539.28;5072513;28;20029;-80
2021/01/02 04:54:54;;;;;;;4.00;1.55;;;;;;;8.84;83.80;99519.16;5071122;28;20028;-80
2021/01/02 04:57:25;;;;;;;2.03;1.13;;;;;;;8.88;83.30;99531.09;5072321;28;20029;-80
2021/01/02 04:59:51;;;;;;;2.38;0.98;;;;;;;8.98;82.93;99523.34;5075638;28;20052;-80
2021/01/02 05:02:23;;;;;;;4.68;1.13;;;;;;;9.02;82.34;99522.25;5094512;28;20115;-80
2021/01/02 05:04:49;;;;;;;2.10;0.80;;;;;;;9.09;81.72;99518.78;5076446;28;20059;-81
2021/01/02 05:07:26;;;;;;;6.40;1.10;;;;;;;9.13;81.61;99514.91;5074392;28;20029;-80
2021/01/02 05:09:56;;;;;;;3.88;1.75;;;;;;;9.21;81.21;99503.94;5072026;28;20071;-81
2021/01/02 05:12:31;;;;;;;2.45;1.67;;;;;;;9.44;79.00;99521.41;5053077;28;20032;-77
2021/01/02 05:15:08;;;;;;;2.53;0.82;;;;;;;9.70;77.56;99512.28;5070164;28;20378;-81
2021/01/02 05:17:38;;;;;;;1.88;0.80;;;;;;;9.82;76.38;99506.53;5072065;28;20028;-80
2021/01/02 05:20:10;;;;;;;2.55;1.38;;;;;;;9.91;76.35;99515.41;5070152;28;20024;-80
2021/01/02 05:22:38;;;;;;;3.90;1.10;;;;;;;9.87;76.31;99511.75;5068038;28;20368;-80
2021/01/02 05:25:07;;;;;;;1.73;0.80;;;;;;;9.67;75.96;99472.16;5067967;28;20008;-80
2021/01/02 05:27:34;;;;;;;2.78;0.90;;;;;;;9.85;75.54;99505.75;5081615;28;20025;-80
2021/01/02 05:30:13;;;;;;;2.03;1.10;;;;;;;9.80;76.36;99506.09;5065002;28;20028;-80
2021/01/02 05:33:03;;;;;;;2.05;1.10;;;;;;;9.73;76.29;99485.72;5084658;28;20524;-80
2021/01/02 05:35:36;;;;;;;5.78;0.90;;;;;;;9.81;75.60;99506.91;5081163;28;20478;-79
2021/01/02 05:38:23;;;;;;;1.55;1.45;;;;;;;9.78;75.92;99500.09;5081173;28;20166;-79
2021/01/02 05:40:58;;;;;;;1.23;1.00;;;;;;;9.83;74.65;99490.66;5065937;28;20032;-80
2021/01/02 05:43:29;;;;;;;2.55;0.93;;;;;;;9.91;74.80;99479.28;5062207;28;20052;-79
2021/01/02 05:45:55;;;;;;;2.15;1.00;;;;;;;10.23;73.03;99495.59;5061779;28;20102;-79
2021/01/02 05:48:28;;;;;;;3.58;1.25;;;;;;;10.27;72.94;99488.09;5060472;28;20029;-80
2021/01/02 05:51:00;;;;;;;4.63;2.38;;;;;;;10.23;72.74;99493.63;5077604;28;20028;-80
2021/01/02 05:53:36;;;;;;;2.90;1.13;;;;;;;10.17;72.20;99503.47;5064445;28;20016;-80
2021/01/02 05:56:09;;;;;;;3.10;1.02;;;;;;;10.15;73.57;99485.53;5080708;28;20047;-79
2021/01/02 05:58:40;;;;;;;1.52;0.95;;;;;;;10.33;72.52;99497.72;5050260;28;20058;-80
2021/01/02 06:01:08;;;;;;;2.33;1.52;;;;;;;10.32;72.21;99507.25;5054336;28;20064;-80
2021/01/02 06:03:38;;;;;;;3.08;1.13;;;;;;;10.37;72.82;99506.09;5055710;28;20039;-80
2021/01/02 06:06:17;;;;;;;4.53;1.35;;;;;;;10.16;72.85;99481.56;5056710;28;20029;-80
2021/01/02 06:08:47;;;;;;;6.28;1.05;;;;;;;10.47;70.70;99489.56;5039238;28;20029;-80
2021/01/02 06:11:21;;;;;;;2.97;1.02;;;;;;;10.43;73.05;99491.50;5056690;28;20033;-80
2021/01/02 06:13:55;;;;;;;2.67;0.73;;;;;;;10.38;73.43;99475.13;5056939;28;20068;-79
2021/01/02 06:16:28;;;;;;;3.83;1.45;;;;;;;10.76;69.33;99478.78;5055886;28;20056;-80
2021/01/02 06:18:56;;;;;;;4.55;1.20;;;;;;;10.80;70.66;99487.94;5058873;28;20053;-77
2021/01/02 06:21:33;;;;;;;8.35;1.10;;;;;;;10.81;70.07;99474.81;5059531;28;20017;-79
2021/01/02 06:24:02;;;;;;;4.03;1.02;;;;;;;10.74;71.46;99472.78;5057009;28;20061;-80
2021/01/02 06:26:32;;;;;;;3.47;1.10;;;;;;;10.67;71.04;99456.00;5055651;28;20034;-79
2021/01/02 06:28:58;;;;;;;3.33;1.38;;;;;;;10.71;69.91;99462.41;5058443;28;20476;-80
2021/01/02 06:31:26;;;;;;;2.13;1.10;;;;;;;10.82;68.80;99477.25;5057103;28;20072;-79
2021/01/02 06:33:52;;;;;;;3.20;1.27;;;;;;;10.88;68.48;99474.91;5057119;28;20535;-79
2021/01/02 06:36:33;;;;;;;5.55;1.30;;;;;;;10.81;69.45;99461.72;5056905;28;20034;-80
2021/01/02 06:39:17;;;;;;;5.40;2.70;;;;;;;10.82;68.92;99460.53;5039701;28;20060;-79
2021/01/02 06:41:42;;;;;;;;;;;;;;;10.78;69.79;99462.47;5059098;28;20029;-80
2021/01/02 06:44:08;;;;;;;4.25;1.40;;;;;;;10.88;70.08;99472.13;5043189;28;19909;-79
2021/01/02 06:46:37;;;;;;;5.18;2.20;;;;;;;10.86;70.62;99468.91;5056376;28;20362;-80
2021/01/02 06:49:32;;;;;;;5.57;1.75;;;;;;;10.79;70.88;99475.22;5058179;28;20372;-80
2021/01/02 06:51:57;;;;;;;3.45;1.60;;;;;;;10.77;71.07;99466.44;5060867;28;20038;-80
2021/01/02 06:54:27;;;;;;;4.15;2.20;;;;;;;10.80;71.01;99465.69;5064217;28;20525;-80
2021/01/02 06:57:04;;;;;;;5.80;1.73;;;;;;;10.77;72.28;99474.81;5066420;28;20030;-80
2021/01/02 06:59:30;;;;;;;5.93;1.60;;;;;;;10.65;73.12;99470.31;5059129;28;20081;-81
2021/01/02 07:01:59;;;;;;;5.22;1.85;;;;;;;10.57;74.01;99474.19;5058789;28;20103;-79
2021/01/02 07:04:38;;;;;;;5.10;1.83;;;;;;;10.54;74.49;99474.13;5058692;28;20045;-80
2021/01/02 07:07:07;;;;;;;6.35;2.72;;;;;;;10.55;74.89;99486.88;5061459;28;20464;-81
2021/01/02 07:09:33;;;;;;;10.93;3.67;;;;;;;10.57;74.84;99479.75;5065214;28;20094;-81
2021/01/02 07:12:10;;;;;;;4.18;1.63;;;;;;;10.69;74.56;99467.53;5060839;28;20116;-81
2021/01/02 07:14:36;;;;;;;6.85;2.13;;;;;;;10.67;74.60;99467.13;5065562;28;20028;-81
2021/01/02 07:17:10;;;;;;;9.77;4.90;;;;;;;10.74;75.04;99479.13;5066281;28;20025;-82
2021/01/02 07:19:38;;;;;;;5.03;3.83;;;;;;;10.75;75.91;99460.44;5065512;28;20038;-81
2021/01/02 07:22:15;;;;;;;4.88;2.65;;;;;;;10.89;73.81;99466.19;5066801;28;20040;-81
2021/01/02 07:24:48;;;;;;;10.05;2.00;;;;;;;11.17;72.29;99453.69;5066157;28;20424;-79
2021/01/02 07:27:20;;;;;;;2.50;1.70;;;;;;;11.31;72.60;99464.97;5070441;28;20025;-81
2021/01/02 07:29:48;;;;;;;6.07;3.13;;;;;;;11.48;71.83;99461.53;5071462;28;20275;-81
2021/01/02 07:32:14;;;;;;;8.82;2.47;;;;;;;11.79;70.69;99451.78;5068285;28;20038;-79
2021/01/02 07:34:44;;;;;;;5.95;1.70;;;;;;;11.97;69.52;99442.75;5064750;28;20036;-80
2021/01/02 07:37:12;;;;;;;7.03;1.23;;;;;;;12.30;67.26;99436.13;5060271;28;20025;-77
2021/01/02 07:39:38;;;;;;;4.07;1.88;;;;;;;12.36;67.28;99448.53;5057457;28;20025;-76
2021/01/02 07:42:07;;;;;;;5.43;1.50;;;;;;;12.36;66.88;99433.75;5055807;28;20411;-76
2021/01/02 07:44:40;;;;;;;6.70;1.73;;;;;;;12.39;65.15;99433.78;5036763;28;20028;-73
2021/01/02 07:47:07;;;;;;;3.30;1.87;;;;;;;12.48;64.50;99434.22;5051709;28;20067;-74
2021/01/02 07:49:33;;;;;;;4.15;1.90;;;;;;;12.44;65.61;99427.03;5051811;28;20280;-73
2021/01/02 07:51:59;;;;;;;3.60;1.30;;;;;;;12.42;65.60;99435.78;5035112;28;20026;-74
2021/01/02 07:54:36;;;;;;;13.25;2.03;;;;;;;12.43;64.51;99423.44;5051651;28;20480;-73
2021/01/02 07:57:05;;;;;;;3.95;1.75;;;;;;;12.41;64.49;99434.19;5051342;28;20057;-73
2021/01/02 07:59:34;;;;;;;9.27;1.83;;;;;;;12.44;63.89;99458.50;5051273;28;20053;-74
2021/01/02 08:02:02;;;;;;;5.35;1.90;;;;;;;12.28;66.12;99499.88;5051906;28;20032;-73
2021/01/02 08:04:30;;;;;;;5.35;1.73;;;;;;;11.95;65.65;99468.25;5051150;28;20032;-73
2021/01/02 08:07:05;;;;;;;9.07;2.70;;;;;;;11.71;68.84;99482.78;5051170;28;20495;-73
2021/01/02 08:09:34;;;;;;;3.90;1.55;;;;;;;11.37;70.85;99488.50;5051151;28;20033;-73
2021/01/02 08:12:09;;;;;;;5.13;1.98;;;;;;;11.16;72.21;99488.31;5034766;28;20069;-73
2021/01/02 08:14:37;;;;;;;4.78;2.42;;;;;;;11.05;72.05;99470.69;5051070;28;20032;-76
2021/01/02 08:17:04;;;;;;;4.05;1.45;;;;;;;10.81;73.71;99472.03;5052833;28;20088;-74
2021/01/02 08:19:34;;;;;;;2.70;1.85;;;;;;;10.83;75.08;99503.88;5051564;28;20033;-75
2021/01/02 08:22:01;;;;;;;1.45;1.35;;;;;;;10.79;76.17;99521.72;5051254;28;20026;-74
2021/01/02 08:24:27;;;;;;;6.20;2.53;;;;;;;10.71;78.04;99540.31;5051526;28;20388;-72
2021/01/02 08:26:54;;;;;;;4.20;1.67;;;;;;;10.44;78.88;99550.72;5050977;28;20022;-73
2021/01/02 08:29:20;;;;;;;12.82;4.28;;;;;;;10.09;79.61;99570.44;5036004;28;20104;-72
2021/01/02 08:31:58;;;;;;;5.68;2.53;;;;;;;10.00;80.89;99556.00;5051473;28;20029;-72
2021/01/02 08:34:34;;;;;;;9.93;3.65;;;;;;;9.84;82.29;99537.50;5051890;28;20033;-74
2021/01/02 08:37:10;;;;;;;6.28;4.63;;;;;;;9.69;82.08;99541.22;5050389;28;20037;-74
2021/01/02 09:13:16;;;;;;;10.27;6.55;;;;;;;12.76;65.63;99522.00;5029419;28;20151;-74
2021/01/02 09:15:49;;;;;;;11.32;5.20;;;;;;;13.55;64.06;99521.00;5075298;28;20072;-74
2021/01/02 09:18:35;;;;;;;8.32;5.43;;;;;;;13.37;62.76;99517.41;5076551;28;20024;-75
2021/01/02 09:21:09;;;;;;;11.00;4.05;;;;;;;12.87;63.52;99536.81;5058571;28;20576;-74
2021/01/02 09:23:40;;;;;;;11.63;6.30;;;;;;;12.66;66.59;99540.31;5073720;28;20027;-74
2021/01/02 09:26:31;;;;;;;6.40;5.40;;;;;;;12.92;66.58;99532.84;5056944;28;20032;-74
2021/01/02 09:28:59;;;;;;;18.42;11.52;;;;;;;13.07;63.81;99543.66;5073219;28;20036;-74
2021/01/02 09:31:25;;;;;;;6.60;3.05;;;;;;;13.20;64.48;99551.66;5056370;28;20035;-74
2021/01/02 09:33:54;;;;;;;6.82;4.38;;;;;;;12.99;65.33;99553.19;5056632;28;20123;-73
2021/01/02 09:36:23;;;;;;;8.18;4.95;;;;;;;13.43;64.57;99551.34;5074704;28;20032;-74
2021/01/02 09:38:50;;;;;;;5.85;3.15;;;;;;;13.36;64.13;99560.47;5056592;28;20021;-74
2021/01/02 09:41:24;;;;;;;4.63;2.80;;;;;;;13.44;64.18;99562.09;5056361;28;20032;-74
2021/01/02 09:43:53;;;;;;;4.75;2.85;;;;;;;13.30;64.91;99557.28;5057164;28;20362;-74
2021/01/02 09:46:20;;;;;;;5.40;3.10;;;;;;;13.17;66.37;99550.47;5056617;28;20036;-74
2021/01/02 09:48:52;;;;;;;8.80;4.57;;;;;;;13.57;65.39;99559.72;5056175;28;20111;-74
2021/01/02 09:51:19;;;;;;;7.72;6.40;;;;;;;13.52;65.67;99552.53;5057502;28;20032;-74
2021/01/02 09:53:45;;;;;;;14.30;10.00;;;;;;;13.62;64.80;99554.53;5057270;28;20025;-74
2021/01/02 09:56:11;;;;;;;8.48;5.57;;;;;;;14.26;61.00;99528.50;5073460;28;20082;-74
2021/01/02 09:58:37;;;;;;;14.20;6.55;;;;;;;14.29;61.15;99549.28;5055754;28;20040;-74
2021/01/02 10:01:04;;;;;;;5.95;3.22;;;;;;;13.97;61.17;99538.94;5056096;28;20116;-74
2021/01/02 10:03:30;;;;;;;11.85;2.75;;;;;;;14.18;61.01;99554.91;5056542;28;20017;-74
2021/01/02 10:05:59;;;;;;;16.63;3.17;;;;;;;14.45;58.85;99538.44;5055953;28;20025;-74
2021/01/02 10:08:25;;;;;;;4.95;2.78;;;;;;;14.10;59.20;99531.72;5055817;28;20052;-74
2021/01/02 10:10:52;;;;;;;7.40;2.50;;;;;;;14.03;58.59;99526.16;5055652;28;20086;-74
2021/01/02 10:13:18;;;;;;;11.68;3.22;;;;;;;13.91;60.65;99517.38;5043100;28;20050;-74
2021/01/02 10:15:44;;;;;;;11.23;3.65;;;;;;;13.80;61.00;99512.59;5050111;28;20025;-74
2021/01/02 10:18:09;;;;;;;9.30;4.18;;;;;;;13.70;61.55;99519.00;5049574;28;20056;-74
2021/01/02 10:20:40;;;;;;;12.07;4.30;;;;;;;13.54;61.92;99513.81;5049012;28;20464;-74
2021/01/02 10:23:06;;;;;;;10.55;3.50;;;;;;;13.62;61.72;99507.00;5049115;28;20030;-72
2021/01/02 10:25:31;;;;;;;12.25;3.85;;;;;;;13.61;60.75;99499.81;5049302;28;20033;-73
2021/01/02 10:28:02;;;;;;;11.38;4.50;;;;;;;13.61;61.00;99505.41;5049464;28;20156;-74
2021/01/02 10:30:28;;;;;;;8.98;2.90;;;;;;;13.70;61.67;99507.81;5049002;28;20033;-73
2021/01/02 10:32:54;;;;;;;9.43;3.80;;;;;;;13.78;62.41;99503.00;5048911;28;20454;-74
2021/01/02 10:35:21;;;;;;;7.10;3.00;;;;;;;13.79;64.20;99502.59;5048983;28;20032;-74
2021/01/02 10:37:48;;;;;;;10.27;3.42;;;;;;;13.95;64.21;99504.97;5048929;28;20087;-73
2021/01/02 10:40:16;;;;;;;13.57;5.13;;;;;;;13.78;63.47;99508.59;5048901;28;20120;-74
2021/01/02 10:42:41;;;;;;;12.82;4.15;;;;;;;14.06;62.39;99499.34;5049517;28;20022;-74
2021/01/02 10:45:14;;;;;;;9.57;2.90;;;;;;;13.89;62.73;99510.19;5049498;28;20551;-74
2021/01/02 10:47:40;;;;;;;12.25;3.15;;;;;;;13.77;62.25;99501.41;5048995;28;20167;-73
2021/01/02 10:50:06;;;;;;;17.25;4.88;;;;;;;13.83;62.29;99497.00;5048786;28;20137;-74
2021/01/02 10:52:31;;;;;;;14.13;4.13;;;;;;;13.84;61.80;99499.41;5049395;28;20076;-74
2021/01/02 10:54:57;;;;;;;8.50;4.22;;;;;;;13.87;62.00;99495.00;5048954;28;20439;-74
2021/01/02 10:57:26;;;;;;;14.77;3.50;;;;;;;13.71;63.00;99497.44;5032353;28;20072;-74
2021/01/02 10:59:52;;;;;;;11.15;3.55;;;;;;;14.22;61.99;99488.56;5050816;28;20459;-74
2021/01/02 11:02:18;;;;;;;21.02;3.53;;;;;;;14.36;61.76;99498.88;5052583;28;20053;-74
2021/01/02 11:04:47;;;;;;;13.13;2.22;;;;;;;14.63;60.32;99491.59;5052806;28;20025;-74
2021/01/02 11:07:13;;;;;;;10.75;3.45;;;;;;;14.60;60.93;99486.84;5052808;28;20468;-74
2021/01/02 11:09:42;;;;;;;10.05;3.10;;;;;;;14.19;60.75;99482.97;5053105;28;20384;-74
2021/01/02 11:12:08;;;;;;;7.97;3.55;;;;;;;14.22;59.34;99477.38;5035986;28;20041;-74
2021/01/02 11:14:33;;;;;;;12.85;3.58;;;;;;;14.56;59.38;99491.66;5058944;28;20048;-74
2021/01/02 11:16:59;;;;;;;8.30;3.00;;;;;;;14.89;58.39;99492.28;5058956;28;20024;-74
2021/01/02 11:19:27;;;;;;;14.00;4.00;;;;;;;15.15;58.18;99488.91;5059074;28;20029;-74
2021/01/02 11:21:55;;;;;;;3.80;3.08;;;;;;;15.15;55.90;99488.91;5075970;28;20025;-75
2021/01/02 11:24:27;;;;;;;16.50;2.60;;;;;;;15.10;55.39;99494.94;5058835;28;20037;-74
2021/01/02 11:26:55;;;;;;;15.10;3.13;;;;;;;14.66;55.94;99504.00;5059288;28;20074;-74
2021/01/02 11:29:23;;;;;;;6.72;2.08;;;;;;;14.31;56.89;99496.50;5058885;28;20028;-73
2021/01/02 11:31:50;;;;;;;12.57;2.60;;;;;;;14.08;56.65;99500.56;5058672;28;20111;-72
2021/01/02 11:34:17;;;;;;;9.52;2.10;;;;;;;13.88;57.52;99491.81;5059241;28;20029;-74
2021/01/02 11:36:42;;;;;;;12.65;2.95;;;;;;;13.98;58.49;99512.56;5059223;28;20115;-78
2021/01/02 11:39:09;;;;;;;10.65;3.30;;;;;;;14.36;57.97;99498.88;5060552;28;20117;-75
2021/01/02 11:41:40;;;;;;;9.10;2.17;;;;;;;14.28;56.07;99505.72;5061589;28;20021;-75
2021/01/02 11:44:08;;;;;;;7.85;2.30;;;;;;;14.23;56.17;99500.53;5062887;28;20028;-74
2021/01/02 11:46:37;;;;;;;13.50;3.63;;;;;;;14.14;56.34;99496.16;5078856;28;20078;-75
2021/01/02 11:49:08;;;;;;;14.82;3.85;;;;;;;14.16;57.55;99502.13;5058371;28;20025;-74
2021/01/02 11:51:35;;;;;;;9.80;3.13;;;;;;;14.18;58.42;99498.16;5058691;28;20062;-74
2021/01/02 11:54:01;;;;;;;13.82;3.20;;;;;;;14.13;58.29;99502.97;5058338;28;20033;-74
2021/01/02 11:56:28;;;;;;;11.73;3.42;;;;;;;14.18;58.98;99504.53;5058500;28;20554;-74
2021/01/02 11:58:57;;;;;;;10.93;3.42;;;;;;;14.07;57.93;99498.97;5076291;28;20033;-74
2021/01/02 12:01:33;;;;;;;10.30;2.40;;;;;;;13.95;58.00;99496.59;5058279;28;20032;-73
2021/01/02 12:03:59;;;;;;;9.10;3.17;;;;;;;13.81;57.05;99491.03;5058015;28;20028;-75
2021/01/02 12:06:29;;;;;;;7.80;3.55;;;;;;;13.78;56.83;99503.00;5058276;28;20024;-74
2021/01/02 12:08:56;;;;;;;11.60;2.70;;;;;;;13.58;57.84;99497.84;5058070;28;20063;-74
2021/01/02 12:11:33;;;;;;;13.57;3.95;;;;;;;13.40;58.86;99505.41;5057864;28;20025;-74
2021/01/02 12:14:03;;;;;;;9.30;4.68;;;;;;;13.37;59.38;99495.06;5075826;28;20079;-73
2021/01/02 12:16:33;;;;;;;17.80;4.00;;;;;;;13.33;59.67;99505.41;5058165;28;20116;-74
2021/01/02 12:19:00;;;;;;;14.80;5.15;;;;;;;13.18;60.71;99503.75;5058620;28;20032;-74
2021/01/02 12:21:29;;;;;;;12.35;3.28;;;;;;;13.14;60.08;99503.75;5058191;28;20047;-74
2021/01/02 12:23:54;;;;;;;9.25;2.58;;;;;;;13.17;58.90;99513.34;5058469;28;20034;-74
2021/01/02 12:26:21;;;;;;;10.48;3.58;;;;;;;13.25;58.76;99498.22;5058665;28;20032;-74
2021/01/02 12:28:50;;;;;;;18.15;2.78;;;;;;;13.19;58.11;99494.19;5074585;28;20081;-74